Bryant, South Dakota
Current Conditions -  °F | °C
As of 7:14 PM on Friday 28 Nov 2014 (Local Time) from KATY Reporting Station
Broken Clouds Broken Clouds  
Wind Chill:   Ceiling: 400
Heat Index: 16°   Visibility: 8mi
Dew Point: 14°   Wind: 6mph
Humidity: 92%   Direction: 130°SE
Pressure: 29.66"   Gusts: NA
Location:  44.59°N, 97.47°W
Report Text: KATY 290114Z AUTO 13005KT 8SM BKN004 M09/M10 A2966 RMK AO2 T10891100
Loading
Personal Weather Stations






























Interactive Weather Map New forecast layout! Learn more

10-Day Weather Forecast

Advertisements
Track Severe Weather on mobile